createdAt,value
2023-03-21T00:00:29.740Z,11.27
2023-03-21T00:02:56.363Z,16.20
2023-03-21T00:05:23.206Z,18.17
2023-03-21T00:07:49.782Z,21.43
2023-03-21T00:13:03.172Z,16.43
2023-03-21T00:15:39.907Z,11.47
2023-03-21T00:18:11.288Z,18.10
2023-03-21T00:20:37.858Z,15.33
2023-03-21T00:23:04.724Z,18.87
2023-03-21T00:25:32.780Z,25.17
2023-03-21T00:28:07.901Z,16.27
2023-03-21T00:30:35.393Z,17.13
2023-03-21T00:33:12.018Z,19.63
2023-03-21T00:36:03.218Z,12.13
2023-03-21T00:38:31.495Z,20.40
2023-03-21T00:41:01.917Z,14.53
2023-03-21T00:43:31.392Z,18.13
2023-03-21T00:45:59.059Z,11.40
2023-03-21T00:48:26.969Z,12.77
2023-03-21T00:50:55.484Z,17.00
2023-03-21T00:53:22.585Z,16.00
2023-03-21T00:55:49.776Z,16.03
2023-03-21T00:58:16.783Z,20.20
2023-03-21T01:00:43.761Z,18.83
2023-03-21T01:03:23.666Z,14.37
2023-03-21T01:06:07.209Z,16.20
2023-03-21T01:08:52.220Z,19.67
2023-03-21T01:11:23.052Z,17.20
2023-03-21T01:13:56.106Z,18.53
2023-03-21T01:16:28.518Z,15.57
2023-03-21T01:18:55.950Z,18.03
2023-03-21T01:21:22.518Z,15.73
2023-03-21T01:23:49.101Z,15.40
2023-03-21T01:26:15.966Z,24.10
2023-03-21T01:28:43.659Z,17.40
2023-03-21T01:31:13.706Z,19.00
2023-03-21T01:33:40.398Z,14.07
2023-03-21T01:36:13.219Z,15.07
2023-03-21T01:38:41.649Z,17.80
2023-03-21T01:41:19.251Z,20.70
2023-03-21T01:43:47.217Z,19.23
2023-03-21T01:46:51.402Z,16.17
2023-03-21T01:49:28.647Z,12.43
2023-03-21T01:52:11.430Z,52.43
2023-03-21T01:54:40.940Z,19.57
2023-03-21T01:57:12.880Z,16.90
2023-03-21T01:59:50.163Z,18.37
2023-03-21T02:02:26.941Z,18.60
2023-03-21T02:04:58.041Z,18.00
2023-03-21T02:07:31.546Z,16.70
2023-03-21T02:09:59.211Z,20.57
2023-03-21T02:12:27.270Z,23.00
2023-03-21T02:14:56.077Z,24.17
2023-03-21T02:17:34.783Z,17.13
2023-03-21T02:20:40.890Z,15.13
2023-03-21T02:23:26.226Z,17.40
2023-03-21T02:26:17.008Z,15.27
2023-03-21T02:28:58.115Z,15.03
2023-03-21T02:31:47.376Z,17.97
2023-03-21T02:34:44.696Z,12.77
2023-03-21T02:37:36.587Z,15.70
2023-03-21T02:40:16.583Z,16.27
2023-03-21T02:43:22.645Z,18.23
2023-03-21T02:46:10.135Z,15.10
2023-03-21T02:48:59.788Z,15.40
2023-03-21T02:51:30.654Z,16.40
2023-03-21T02:54:26.450Z,20.17
2023-03-21T02:56:53.793Z,14.83
2023-03-21T02:59:22.524Z,17.43
2023-03-21T03:01:54.672Z,17.97
2023-03-21T03:04:23.916Z,15.10
2023-03-21T03:07:12.059Z,13.63
2023-03-21T03:09:57.177Z,21.83
2023-03-21T03:12:45.434Z,15.07
2023-03-21T03:15:35.307Z,21.80
2023-03-21T03:18:23.892Z,15.87
2023-03-21T03:21:19.704Z,18.00
2023-03-21T03:23:54.486Z,25.40
2023-03-21T03:26:26.916Z,17.03
2023-03-21T03:28:57.271Z,21.07
2023-03-21T03:31:29.512Z,14.00
2023-03-21T03:34:00.274Z,14.60
2023-03-21T03:36:36.752Z,17.50
2023-03-21T03:39:10.169Z,20.40
2023-03-21T03:42:12.597Z,16.87
2023-03-21T03:44:48.135Z,22.73
2023-03-21T03:47:57.537Z,13.83
2023-03-21T03:50:30.758Z,13.83
2023-03-21T03:53:09.829Z,11.83
2023-03-21T03:55:44.240Z,16.30
2023-03-21T03:58:21.707Z,13.60
2023-03-21T04:00:51.464Z,13.93
2023-03-21T04:03:18.544Z,18.27
2023-03-21T04:05:47.819Z,14.13
2023-03-21T04:08:15.308Z,13.77
2023-03-21T04:10:42.956Z,16.33
2023-03-21T04:13:10.462Z,16.47
2023-03-21T04:15:37.076Z,17.87
2023-03-21T04:18:04.141Z,14.63
2023-03-21T04:20:36.958Z,20.37
2023-03-21T04:23:04.579Z,22.33
2023-03-21T04:25:34.848Z,18.50
2023-03-21T04:28:01.984Z,19.07
2023-03-21T04:30:28.856Z,16.63
2023-03-21T04:32:56.767Z,18.73
2023-03-21T04:35:24.590Z,18.30
2023-03-21T04:37:51.215Z,18.17
2023-03-21T04:40:18.743Z,17.87
2023-03-21T04:42:46.894Z,17.07
2023-03-21T04:45:15.556Z,18.87
2023-03-21T04:47:42.849Z,10.30
2023-03-21T04:50:11.011Z,15.10
2023-03-21T04:52:37.611Z,22.90
2023-03-21T04:55:04.591Z,20.67
2023-03-21T04:57:31.134Z,20.13
2023-03-21T04:59:57.690Z,16.80
2023-03-21T05:02:24.275Z,17.27
2023-03-21T05:04:51.042Z,19.63
2023-03-21T05:07:17.567Z,20.27
2023-03-21T05:09:44.067Z,22.03
2023-03-21T05:12:10.615Z,21.73
2023-03-21T05:14:37.125Z,20.53
2023-03-21T05:17:05.191Z,20.20
2023-03-21T05:19:35.688Z,17.60
2023-03-21T05:22:05.111Z,18.70
2023-03-21T05:24:32.756Z,22.37
2023-03-21T05:27:03.681Z,21.10
2023-03-21T05:29:32.112Z,17.20
2023-03-21T05:32:00.540Z,17.50
2023-03-21T05:34:28.199Z,21.43
2023-03-21T05:36:55.211Z,17.63
2023-03-21T05:39:21.800Z,15.23
2023-03-21T05:41:49.391Z,15.10
2023-03-21T05:44:15.993Z,20.97
2023-03-21T05:46:43.388Z,19.20
2023-03-21T05:49:11.268Z,14.53
2023-03-21T05:51:37.857Z,19.63
2023-03-21T05:54:04.521Z,14.53
2023-03-21T05:56:31.105Z,18.27
2023-03-21T05:58:57.604Z,12.77
2023-03-21T06:01:24.333Z,10.20
2023-03-21T06:03:50.886Z,10.30
2023-03-21T06:06:17.409Z,8.73
2023-03-21T06:08:44.114Z,11.70
2023-03-21T06:11:29.406Z,13.70
2023-03-21T06:13:55.896Z,14.50
2023-03-21T06:16:22.564Z,12.97
2023-03-21T06:18:49.234Z,15.60
2023-03-21T06:21:16.090Z,10.90
2023-03-21T06:23:42.675Z,11.63
2023-03-21T06:26:09.218Z,14.40
2023-03-21T06:28:36.595Z,11.30
2023-03-21T06:31:03.624Z,12.93
2023-03-21T06:33:30.356Z,15.17
2023-03-21T06:35:58.861Z,9.60
2023-03-21T06:38:26.162Z,12.80
2023-03-21T06:40:53.604Z,7.60
2023-03-21T06:43:20.171Z,13.37
2023-03-21T06:45:46.784Z,12.67
2023-03-21T06:48:13.439Z,11.00
2023-03-21T06:50:40.420Z,13.07
2023-03-21T06:53:07.025Z,8.23
2023-03-21T06:55:33.541Z,7.33
2023-03-21T06:58:00.098Z,6.87
2023-03-21T07:00:26.711Z,9.70
2023-03-21T07:02:53.763Z,14.03
2023-03-21T07:05:20.690Z,6.80
2023-03-21T07:07:48.499Z,6.87
2023-03-21T07:10:15.432Z,7.77
2023-03-21T07:12:41.977Z,12.33
2023-03-21T07:15:10.755Z,10.37
2023-03-21T07:17:37.440Z,12.63
2023-03-21T07:20:07.829Z,8.77
2023-03-21T07:22:35.550Z,11.40
2023-03-21T07:25:05.462Z,10.40
2023-03-21T07:27:32.361Z,8.80
2023-03-21T07:29:59.067Z,10.37
2023-03-21T07:32:29.696Z,12.83
2023-03-21T07:34:56.524Z,8.67
2023-03-21T07:37:23.836Z,14.47
2023-03-21T07:39:51.278Z,17.70
2023-03-21T07:42:18.468Z,10.30
2023-03-21T07:44:45.491Z,10.40
2023-03-21T07:47:12.027Z,15.93
2023-03-21T07:49:38.563Z,11.73
2023-03-21T07:52:06.835Z,16.93
2023-03-21T07:54:33.701Z,17.37
2023-03-21T07:57:00.386Z,11.70
2023-03-21T07:59:26.949Z,11.47
2023-03-21T08:01:53.514Z,13.53
2023-03-21T08:04:20.024Z,11.67
2023-03-21T08:06:46.591Z,17.53
2023-03-21T08:09:13.151Z,9.70
2023-03-21T08:11:40.208Z,10.07
2023-03-21T08:14:06.879Z,10.03
2023-03-21T08:16:33.524Z,11.53
2023-03-21T08:19:00.101Z,13.10
2023-03-21T08:21:27.501Z,11.33
2023-03-21T08:23:54.189Z,11.13
2023-03-21T08:26:21.265Z,8.47
2023-03-21T08:28:47.813Z,10.33
2023-03-21T08:31:14.961Z,10.90
2023-03-21T08:33:41.576Z,9.73
2023-03-21T08:36:08.746Z,14.63
2023-03-21T08:38:35.793Z,14.73
2023-03-21T08:41:02.635Z,8.67
2023-03-21T08:43:30.133Z,8.30
2023-03-21T08:45:57.022Z,11.10
2023-03-21T08:48:23.627Z,15.27
2023-03-21T08:50:50.233Z,9.40
2023-03-21T08:53:16.745Z,8.83
2023-03-21T08:55:44.301Z,9.77
2023-03-21T08:58:11.158Z,7.73
2023-03-21T09:00:37.971Z,10.93
2023-03-21T09:03:04.836Z,7.23
2023-03-21T09:05:31.580Z,10.73
2023-03-21T09:07:58.198Z,7.67
2023-03-21T09:10:24.775Z,9.23
2023-03-21T09:12:54.378Z,11.40
2023-03-21T09:15:24.167Z,11.30
2023-03-21T09:17:53.138Z,11.03
2023-03-21T09:20:25.865Z,12.53
2023-03-21T09:22:53.257Z,14.20
2023-03-21T09:25:20.566Z,9.90
2023-03-21T09:27:47.789Z,10.60
2023-03-21T09:30:19.889Z,16.23
2023-03-21T09:32:48.461Z,14.17
2023-03-21T09:35:18.676Z,9.33
2023-03-21T09:37:47.500Z,8.83
2023-03-21T09:40:17.156Z,9.00
2023-03-21T09:43:35.413Z,12.63
2023-03-21T09:46:16.422Z,14.60
2023-03-21T09:48:57.455Z,9.87
2023-03-21T09:51:29.058Z,8.03
2023-03-21T09:54:00.471Z,13.73
2023-03-21T09:56:27.411Z,8.30
2023-03-21T09:58:59.132Z,5.47
2023-03-21T10:01:34.075Z,5.97
2023-03-21T10:04:04.636Z,8.90
2023-03-21T10:06:32.725Z,5.93
2023-03-21T10:09:15.060Z,5.13
2023-03-21T10:11:48.610Z,7.60
2023-03-21T10:14:36.237Z,13.50
2023-03-21T10:17:10.961Z,6.73
2023-03-21T10:19:37.477Z,7.73
2023-03-21T10:22:04.516Z,8.60
2023-03-21T10:24:33.837Z,5.10
2023-03-21T10:27:01.169Z,6.27
2023-03-21T10:29:37.428Z,5.87
2023-03-21T10:32:04.775Z,5.00
2023-03-21T10:37:24.657Z,5.13
2023-03-21T10:39:53.435Z,4.93
2023-03-21T10:42:29.177Z,5.10
2023-03-21T10:44:57.389Z,6.27
2023-03-21T10:47:33.488Z,7.33
2023-03-21T10:50:08.985Z,8.27
2023-03-21T10:52:41.336Z,5.70
2023-03-21T10:55:22.429Z,5.27
2023-03-21T10:57:55.222Z,6.40
2023-03-21T11:00:25.655Z,10.47
2023-03-21T11:02:54.245Z,9.37
2023-03-21T11:05:37.555Z,8.07
2023-03-21T11:08:13.563Z,6.07
2023-03-21T11:11:05.958Z,5.47
2023-03-21T11:13:45.399Z,6.23
2023-03-21T11:16:23.214Z,12.40
2023-03-21T11:18:51.966Z,6.00
2023-03-21T11:21:21.492Z,6.20
2023-03-21T11:23:51.612Z,6.67
2023-03-21T11:26:24.033Z,6.40
2023-03-21T11:28:54.020Z,5.73
2023-03-21T11:31:21.278Z,5.53
2023-03-21T11:33:56.841Z,6.20
2023-03-21T11:36:23.409Z,7.33
2023-03-21T11:38:57.135Z,7.97
2023-03-21T11:41:34.652Z,6.50
2023-03-21T11:44:02.844Z,6.70
2023-03-21T11:46:31.349Z,6.97
2023-03-21T11:48:59.430Z,7.33
2023-03-21T11:51:39.892Z,11.87
2023-03-21T11:54:38.588Z,6.53
2023-03-21T11:57:14.118Z,8.83
2023-03-21T12:00:17.703Z,8.60
2023-03-21T12:03:22.044Z,13.37
2023-03-21T12:06:02.257Z,5.80
2023-03-21T12:08:54.434Z,6.23
2023-03-21T12:11:49.134Z,10.53
2023-03-21T12:14:27.615Z,6.57
2023-03-21T12:17:05.552Z,6.93
2023-03-21T12:20:00.519Z,7.60
2023-03-21T12:22:49.300Z,6.73
2023-03-21T12:25:25.495Z,8.20
2023-03-21T12:28:08.379Z,7.47
2023-03-21T12:30:54.544Z,6.67
2023-03-21T12:34:02.295Z,6.07
2023-03-21T12:36:56.975Z,8.83
2023-03-21T12:39:36.179Z,7.83
2023-03-21T12:42:56.388Z,8.10
2023-03-21T12:45:37.338Z,7.87
2023-03-21T12:48:24.717Z,5.80
2023-03-21T12:50:54.786Z,5.30
2023-03-21T12:53:39.287Z,5.20
2023-03-21T12:56:11.497Z,6.73
2023-03-21T12:58:49.386Z,5.93
2023-03-21T13:01:19.754Z,6.63
2023-03-21T13:04:25.904Z,7.37
2023-03-21T13:06:53.960Z,5.20
2023-03-21T13:09:39.208Z,5.50
2023-03-21T13:12:23.665Z,6.40
2023-03-21T13:15:07.861Z,7.53
2023-03-21T13:17:48.447Z,6.17
2023-03-21T13:20:20.094Z,6.53
2023-03-21T13:22:46.780Z,5.93
2023-03-21T13:25:20.535Z,4.80
2023-03-21T13:27:56.163Z,5.73
2023-03-21T13:30:26.300Z,5.20
2023-03-21T13:33:07.030Z,5.43
2023-03-21T13:35:39.044Z,5.33
2023-03-21T13:38:16.208Z,5.10
2023-03-21T13:41:03.470Z,5.33
2023-03-21T13:43:38.802Z,5.23
2023-03-21T13:46:14.304Z,5.20
2023-03-21T13:49:01.296Z,5.30
2023-03-21T13:51:37.090Z,4.63
2023-03-21T13:54:22.353Z,7.57
2023-03-21T13:56:51.743Z,6.47
2023-03-21T13:59:38.712Z,5.63
2023-03-21T14:02:20.870Z,5.70
2023-03-21T14:05:04.941Z,8.57
2023-03-21T14:07:42.350Z,6.33
2023-03-21T14:10:19.996Z,4.80
2023-03-21T14:12:47.446Z,4.90
2023-03-21T14:15:19.589Z,5.63
2023-03-21T14:17:55.436Z,4.53
2023-03-21T14:20:28.954Z,4.30
2023-03-21T14:22:55.732Z,7.73
2023-03-21T14:25:27.185Z,5.57
2023-03-21T14:27:59.411Z,4.53
2023-03-21T14:30:45.313Z,4.93
2023-03-21T14:33:41.378Z,5.80
2023-03-21T14:36:20.062Z,6.47
2023-03-21T14:39:04.985Z,4.93
2023-03-21T14:41:33.546Z,5.23
2023-03-21T14:44:25.723Z,7.73
2023-03-21T14:47:02.560Z,9.20
2023-03-21T14:49:31.900Z,7.70
2023-03-21T14:52:01.521Z,5.10
2023-03-21T14:54:28.807Z,4.60
2023-03-21T14:57:11.352Z,5.20
2023-03-21T14:59:40.388Z,7.35
2023-03-21T15:02:28.157Z,5.23
2023-03-21T15:04:58.694Z,4.25
2023-03-21T15:07:32.237Z,4.78
2023-03-21T15:10:03.775Z,8.27
2023-03-21T15:12:31.795Z,3.97
2023-03-21T15:14:59.852Z,6.05
2023-03-21T15:17:27.487Z,4.10
2023-03-21T15:19:54.175Z,4.40
2023-03-21T15:22:31.830Z,4.47
2023-03-21T15:25:06.040Z,7.38
2023-03-21T15:27:38.537Z,6.32
2023-03-21T15:30:06.070Z,4.63
2023-03-21T15:32:36.276Z,6.40
2023-03-21T15:35:12.119Z,5.13
2023-03-21T15:37:38.950Z,4.85
2023-03-21T15:40:18.131Z,6.25
2023-03-21T15:42:44.914Z,8.68
2023-03-21T15:45:24.736Z,5.95
2023-03-21T15:48:00.492Z,5.38
2023-03-21T15:50:33.884Z,4.87
2023-03-21T15:53:03.859Z,7.77
2023-03-21T15:55:48.108Z,4.53
2023-03-21T15:58:22.068Z,5.70
2023-03-21T16:00:57.166Z,6.50
2023-03-21T16:03:28.063Z,4.50
2023-03-21T16:06:14.216Z,5.27
2023-03-21T16:08:50.127Z,7.17
2023-03-21T16:11:22.862Z,5.33
2023-03-21T16:13:50.928Z,8.50
2023-03-21T16:16:23.831Z,5.53
2023-03-21T16:18:51.531Z,5.20
2023-03-21T16:21:20.886Z,6.23
2023-03-21T16:23:48.824Z,5.50
2023-03-21T16:26:17.744Z,6.03
2023-03-21T16:28:45.272Z,5.20
2023-03-21T16:31:23.311Z,7.73
2023-03-21T16:33:51.093Z,6.23
2023-03-21T16:36:22.792Z,6.03
2023-03-21T16:38:52.491Z,7.50
2023-03-21T16:41:20.303Z,5.10
2023-03-21T16:43:46.846Z,5.07
2023-03-21T16:46:22.683Z,6.13
2023-03-21T16:48:52.229Z,5.40
2023-03-21T16:51:31.444Z,5.17
2023-03-21T16:53:58.290Z,5.57
2023-03-21T16:56:35.412Z,8.10
2023-03-21T16:59:01.931Z,5.63
2023-03-21T17:01:29.874Z,6.23
2023-03-21T17:04:00.239Z,8.53
2023-03-21T17:06:29.014Z,6.50
2023-03-21T17:08:56.946Z,5.97
2023-03-21T17:11:26.626Z,5.57
2023-03-21T17:13:55.012Z,8.47
2023-03-21T17:16:26.687Z,9.10
2023-03-21T17:18:53.822Z,7.17
2023-03-21T17:21:23.097Z,6.97
2023-03-21T17:23:50.723Z,9.53
2023-03-21T17:26:26.261Z,7.40
2023-03-21T17:28:55.375Z,9.32
2023-03-21T17:31:23.846Z,6.20
2023-03-21T17:33:51.075Z,7.53
2023-03-21T17:36:28.186Z,8.20
2023-03-21T17:38:55.273Z,6.47
2023-03-21T17:41:22.685Z,8.57
2023-03-21T17:43:50.809Z,6.10
2023-03-21T17:46:20.950Z,6.43
2023-03-21T17:48:48.276Z,7.43
2023-03-21T17:51:16.409Z,6.27
2023-03-21T17:53:44.012Z,7.13
2023-03-21T17:56:16.243Z,7.40
2023-03-21T17:58:43.408Z,8.03
2023-03-21T18:01:09.981Z,6.60
2023-03-21T18:03:36.601Z,8.67
2023-03-21T18:06:03.756Z,11.20
2023-03-21T18:08:30.525Z,7.40
2023-03-21T18:10:57.046Z,7.50
2023-03-21T18:13:23.871Z,9.23
2023-03-21T18:15:50.635Z,6.53
2023-03-21T18:18:17.701Z,15.33
2023-03-21T18:20:51.995Z,7.40
2023-03-21T18:23:19.344Z,11.07
2023-03-21T18:25:46.223Z,7.40
2023-03-21T18:28:13.215Z,7.23
2023-03-21T18:31:10.282Z,7.43
2023-03-21T18:33:28.084Z,8.50
2023-03-21T18:35:59.055Z,11.70
2023-03-21T18:38:29.449Z,7.47
2023-03-21T18:40:56.590Z,11.20
2023-03-21T18:46:11.336Z,7.53
2023-03-21T18:48:39.288Z,7.53
2023-03-21T18:51:06.088Z,9.37
2023-03-21T18:53:32.652Z,8.67
2023-03-21T18:55:59.191Z,7.70
2023-03-21T18:58:27.977Z,10.60
2023-03-21T19:00:56.917Z,11.83
2023-03-21T19:03:35.185Z,10.57
2023-03-21T19:06:04.577Z,9.43
2023-03-21T19:08:31.610Z,12.13
2023-03-21T19:11:00.108Z,10.67
2023-03-21T19:13:28.226Z,9.27
2023-03-21T19:15:56.159Z,15.07
2023-03-21T19:18:53.584Z,10.37
2023-03-21T19:21:09.525Z,10.20
2023-03-21T19:24:08.003Z,10.53
2023-03-21T19:26:23.667Z,10.70
2023-03-21T19:28:50.352Z,12.10
2023-03-21T19:31:17.856Z,11.73
2023-03-21T19:33:44.554Z,8.80
2023-03-21T19:36:21.124Z,10.23
2023-03-21T19:38:48.651Z,12.00
2023-03-21T19:41:15.376Z,9.17
2023-03-21T19:43:52.734Z,9.27
2023-03-21T19:46:22.973Z,11.77
2023-03-21T19:48:50.038Z,13.53
2023-03-21T19:51:32.925Z,9.23
2023-03-21T19:54:01.091Z,12.73
2023-03-21T19:56:27.875Z,10.87
2023-03-21T19:58:55.975Z,8.37
2023-03-21T20:01:23.924Z,12.73
2023-03-21T20:03:51.420Z,11.60
2023-03-21T20:06:18.457Z,9.23
2023-03-21T20:11:32.240Z,11.83
2023-03-21T20:14:00.300Z,11.00
2023-03-21T20:16:34.191Z,12.70
2023-03-21T20:19:01.498Z,13.40
2023-03-21T20:21:34.778Z,11.20
2023-03-21T20:24:05.038Z,12.03
2023-03-21T20:26:31.662Z,15.53
2023-03-21T20:29:27.952Z,9.67
2023-03-21T20:31:44.816Z,9.87
2023-03-21T20:34:11.456Z,10.77
2023-03-21T20:36:40.818Z,10.50
2023-03-21T20:39:07.564Z,12.27
2023-03-21T20:41:34.178Z,13.53
2023-03-21T20:46:47.701Z,10.20
2023-03-21T20:49:15.236Z,9.30
2023-03-21T20:52:44.602Z,9.17
2023-03-21T20:54:29.614Z,10.80
2023-03-21T20:56:56.987Z,10.70
2023-03-21T20:59:27.102Z,12.83
2023-03-21T21:01:57.792Z,11.77
2023-03-21T21:04:44.130Z,12.00
2023-03-21T21:07:16.941Z,10.07
2023-03-21T21:09:44.848Z,9.90
2023-03-21T21:12:13.832Z,9.67
2023-03-21T21:14:41.126Z,10.57
2023-03-21T21:17:26.725Z,11.97
2023-03-21T21:19:55.249Z,9.67
2023-03-21T21:22:21.809Z,11.03
2023-03-21T21:24:48.373Z,9.70
2023-03-21T21:27:14.942Z,13.03
2023-03-21T21:29:43.140Z,9.57
2023-03-21T21:32:09.803Z,10.13
2023-03-21T21:34:37.006Z,15.43
2023-03-21T21:37:03.603Z,10.77
2023-03-21T21:39:35.811Z,11.20
2023-03-21T21:42:02.564Z,10.13
2023-03-21T21:44:29.635Z,10.63
2023-03-21T21:46:57.290Z,9.40
2023-03-21T21:49:23.941Z,12.57
2023-03-21T21:51:50.632Z,10.03
2023-03-21T21:54:17.992Z,12.00
2023-03-21T21:56:48.124Z,11.67
2023-03-21T21:59:21.866Z,10.10
2023-03-21T22:01:54.699Z,9.50
2023-03-21T22:04:27.551Z,11.53
2023-03-21T22:06:55.474Z,10.10
2023-03-21T22:09:22.658Z,10.70
2023-03-21T22:11:49.504Z,11.17
2023-03-21T22:14:16.031Z,11.33
2023-03-21T22:16:43.839Z,10.43
2023-03-21T22:19:10.764Z,10.07
2023-03-21T22:21:37.306Z,10.67
2023-03-21T22:24:04.118Z,13.73
2023-03-21T22:26:30.657Z,11.37
2023-03-21T22:28:58.279Z,12.60
2023-03-21T22:31:26.203Z,11.00
2023-03-21T22:33:52.949Z,10.83
2023-03-21T22:36:20.045Z,11.73
2023-03-21T22:38:47.651Z,11.23
2023-03-21T22:41:14.339Z,13.47
2023-03-21T22:43:40.913Z,12.43
2023-03-21T22:46:07.617Z,10.93
2023-03-21T22:48:34.649Z,12.33
2023-03-21T22:51:01.313Z,14.00
2023-03-21T22:53:28.415Z,13.33
2023-03-21T22:55:55.522Z,13.73
2023-03-21T22:58:22.033Z,14.37
2023-03-21T23:00:48.698Z,12.93
2023-03-21T23:03:16.701Z,14.70
2023-03-21T23:05:44.428Z,12.07
2023-03-21T23:08:11.981Z,16.77
2023-03-21T23:10:40.862Z,17.70
2023-03-21T23:13:07.633Z,11.60
2023-03-21T23:15:34.163Z,13.13
2023-03-21T23:18:00.774Z,15.63
2023-03-21T23:20:27.528Z,14.00
2023-03-21T23:22:54.162Z,11.03
2023-03-21T23:25:20.836Z,14.30
2023-03-21T23:27:47.930Z,14.53
2023-03-21T23:30:14.653Z,14.60
2023-03-21T23:32:41.760Z,14.47
2023-03-21T23:35:09.423Z,12.90
2023-03-21T23:37:36.351Z,18.40
2023-03-21T23:40:06.012Z,14.33
2023-03-21T23:42:34.015Z,15.17
2023-03-21T23:45:00.698Z,13.03
2023-03-21T23:47:27.229Z,17.03
2023-03-21T23:49:54.368Z,15.30
2023-03-21T23:52:21.315Z,17.77
2023-03-21T23:54:47.916Z,16.00
2023-03-21T23:57:14.523Z,15.63
2023-03-21T23:59:41.187Z,15.33
